sensor_id;sensor_type;location;lat;lon;timestamp;pressure;altitude;pressure_sealevel;temperature;humidity
42105;BME280;61464;51.472;5.712;2023-02-12T00:02:04;103565.66;;;7.30;100.00
42105;BME280;61464;51.472;5.712;2023-02-12T00:04:30;103567.47;;;7.28;100.00
42105;BME280;61464;51.472;5.712;2023-02-12T00:06:56;103567.47;;;7.28;100.00
42105;BME280;61464;51.472;5.712;2023-02-12T00:09:25;103576.84;;;7.30;100.00
42105;BME280;61464;51.472;5.712;2023-02-12T00:11:52;103580.22;;;7.32;100.00
42105;BME280;61464;51.472;5.712;2023-02-12T00:14:24;103582.78;;;7.32;100.00
42105;BME280;61464;51.472;5.712;2023-02-12T00:16:57;103575.22;;;7.28;100.00
42105;BME280;61464;51.472;5.712;2023-02-12T00:19:24;103572.72;;;7.26;100.00
42105;BME280;61464;51.472;5.712;2023-02-12T00:21:56;103574.41;;;7.27;100.00
42105;BME280;61464;51.472;5.712;2023-02-12T00:24:22;103571.81;;;7.27;100.00
42105;BME280;61464;51.472;5.712;2023-02-12T00:26:59;103578.03;;;7.23;100.00
42105;BME280;61464;51.472;5.712;2023-02-12T00:29:25;103577.25;;;7.21;100.00
42105;BME280;61464;51.472;5.712;2023-02-12T00:32:04;103579.13;;;7.17;100.00
42105;BME280;61464;51.472;5.712;2023-02-12T00:34:39;103578.22;;;7.18;100.00
42105;BME280;61464;51.472;5.712;2023-02-12T00:37:51;103579.13;;;7.17;100.00
42105;BME280;61464;51.472;5.712;2023-02-12T00:40:20;103576.47;;;7.19;100.00
42105;BME280;61464;51.472;5.712;2023-02-12T00:45:33;103574.09;;;7.14;100.00
42105;BME280;61464;51.472;5.712;2023-02-12T00:48:06;103575.00;;;7.13;100.00
42105;BME280;61464;51.472;5.712;2023-02-12T00:50:40;103565.69;;;7.09;100.00
42105;BME280;61464;51.472;5.712;2023-02-12T00:53:07;103564.91;;;7.07;100.00
42105;BME280;61464;51.472;5.712;2023-02-12T00:55:37;103577.66;;;7.12;100.00
42105;BME280;61464;51.472;5.712;2023-02-12T00:58:27;103584.56;;;7.11;100.00
42105;BME280;61464;51.472;5.712;2023-02-12T01:01:07;103579.59;;;7.07;100.00
42105;BME280;61464;51.472;5.712;2023-02-12T01:03:38;103575.19;;;7.09;100.00
42105;BME280;61464;51.472;5.712;2023-02-12T01:06:05;103560.03;;;7.01;100.00
42105;BME280;61464;51.472;5.712;2023-02-12T01:08:35;103559.91;;;7.04;100.00
42105;BME280;61464;51.472;5.712;2023-02-12T01:11:03;103571.00;;;7.06;100.00
42105;BME280;61464;51.472;5.712;2023-02-12T01:13:33;103571.28;;;7.00;100.00
42105;BME280;61464;51.472;5.712;2023-02-12T01:16:28;103565.41;;;6.96;100.00
42105;BME280;61464;51.472;5.712;2023-02-12T01:18:58;103569.84;;;6.93;100.00
42105;BME280;61464;51.472;5.712;2023-02-12T01:21:32;103565.59;;;6.92;100.00
42105;BME280;61464;51.472;5.712;2023-02-12T01:24:02;103569.22;;;6.88;100.00
42105;BME280;61464;51.472;5.712;2023-02-12T01:26:30;103573.41;;;6.90;100.00
42105;BME280;61464;51.472;5.712;2023-02-12T01:29:03;103568.25;;;6.90;100.00
42105;BME280;61464;51.472;5.712;2023-02-12T01:31:37;103561.41;;;6.89;100.00
42105;BME280;61464;51.472;5.712;2023-02-12T01:34:08;103563.06;;;6.90;100.00
42105;BME280;61464;51.472;5.712;2023-02-12T01:36:46;103550.22;;;6.89;100.00
42105;BME280;61464;51.472;5.712;2023-02-12T01:39:15;103562.28;;;6.88;100.00
42105;BME280;61464;51.472;5.712;2023-02-12T01:41:51;103560.50;;;6.90;100.00
42105;BME280;61464;51.472;5.712;2023-02-12T01:44:23;103559.59;;;6.91;100.00
42105;BME280;61464;51.472;5.712;2023-02-12T01:47:04;103552.03;;;6.87;100.00
42105;BME280;61464;51.472;5.712;2023-02-12T01:49:40;103558.88;;;6.88;100.00
42105;BME280;61464;51.472;5.712;2023-02-12T01:52:21;103558.06;;;6.87;100.00
42105;BME280;61464;51.472;5.712;2023-02-12T01:54:54;103557.13;;;6.88;100.00
42105;BME280;61464;51.472;5.712;2023-02-12T01:57:22;103559.47;;;6.94;100.00
42105;BME280;61464;51.472;5.712;2023-02-12T01:59:55;103562.81;;;6.96;100.00
42105;BME280;61464;51.472;5.712;2023-02-12T02:02:25;103549.84;;;6.98;100.00
42105;BME280;61464;51.472;5.712;2023-02-12T02:05:03;103559.13;;;7.02;100.00
42105;BME280;61464;51.472;5.712;2023-02-12T02:07:30;103556.50;;;7.03;100.00
42105;BME280;61464;51.472;5.712;2023-02-12T02:09:58;103561.56;;;7.05;100.00
42105;BME280;61464;51.472;5.712;2023-02-12T02:12:31;103548.03;;;7.00;100.00
42105;BME280;61464;51.472;5.712;2023-02-12T02:15:16;103546.06;;;7.05;100.00
42105;BME280;61464;51.472;5.712;2023-02-12T02:18:20;103557.06;;;7.10;100.00
42105;BME280;61464;51.472;5.712;2023-02-12T02:21:18;103558.81;;;7.10;100.00
42105;BME280;61464;51.472;5.712;2023-02-12T02:39:25;103549.03;;;6.77;100.00
42105;BME280;61464;51.472;5.712;2023-02-12T02:42:34;103549.06;;;6.75;100.00
42105;BME280;61464;51.472;5.712;2023-02-12T02:45:24;103544.91;;;6.73;100.00
42105;BME280;61464;51.472;5.712;2023-02-12T02:48:05;103554.09;;;6.78;100.00
42105;BME280;61464;51.472;5.712;2023-02-12T02:50:41;103552.28;;;6.80;100.00
42105;BME280;61464;51.472;5.712;2023-02-12T02:53:38;103550.88;;;6.73;100.00
42105;BME280;61464;51.472;5.712;2023-02-12T02:56:07;103547.38;;;6.74;100.00
42105;BME280;61464;51.472;5.712;2023-02-12T02:58:58;103540.66;;;6.70;100.00
42105;BME280;61464;51.472;5.712;2023-02-12T03:01:33;103532.03;;;6.71;100.00
42105;BME280;61464;51.472;5.712;2023-02-12T03:04:11;103539.78;;;6.71;100.00
42105;BME280;61464;51.472;5.712;2023-02-12T03:07:07;103549.13;;;6.74;100.00
42105;BME280;61464;51.472;5.712;2023-02-12T03:09:48;103542.41;;;6.70;100.00
42105;BME280;61464;51.472;5.712;2023-02-12T03:12:27;103532.16;;;6.68;100.00
42105;BME280;61464;51.472;5.712;2023-02-12T03:15:13;103535.59;;;6.69;100.00
42105;BME280;61464;51.472;5.712;2023-02-12T03:17:48;103535.66;;;6.67;100.00
42105;BME280;61464;51.472;5.712;2023-02-12T03:20:30;103543.41;;;6.67;100.00
42105;BME280;61464;51.472;5.712;2023-02-12T03:23:18;103542.47;;;6.68;100.00
42105;BME280;61464;51.472;5.712;2023-02-12T03:26:07;103541.59;;;6.69;100.00
42105;BME280;61464;51.472;5.712;2023-02-12T03:28:50;103534.69;;;6.70;100.00
42105;BME280;61464;51.472;5.712;2023-02-12T03:42:55;103540.94;;;6.64;100.00
42105;BME280;61464;51.472;5.712;2023-02-12T03:46:13;103539.91;;;6.68;100.00
42105;BME280;61464;51.472;5.712;2023-02-12T03:49:39;103541.44;;;6.72;100.00
42105;BME280;61464;51.472;5.712;2023-02-12T03:51:58;103543.19;;;6.72;100.00
42105;BME280;61464;51.472;5.712;2023-02-12T03:54:25;103551.78;;;6.72;100.00
42105;BME280;61464;51.472;5.712;2023-02-12T03:57:16;103545.97;;;6.67;100.00
42105;BME280;61464;51.472;5.712;2023-02-12T03:59:48;103548.56;;;6.67;100.00
42105;BME280;61464;51.472;5.712;2023-02-12T04:02:17;103531.72;;;6.58;100.00
42105;BME280;61464;51.472;5.712;2023-02-12T04:04:47;103556.16;;;6.70;100.00
42105;BME280;61464;51.472;5.712;2023-02-12T04:07:16;103547.59;;;6.70;100.00
42105;BME280;61464;51.472;5.712;2023-02-12T04:09:45;103544.03;;;6.72;100.00
42105;BME280;61464;51.472;5.712;2023-02-12T04:19:42;103549.72;;;6.80;100.00
42105;BME280;61464;51.472;5.712;2023-02-12T04:36:00;103568.25;;;6.70;100.00
42105;BME280;61464;51.472;5.712;2023-02-12T04:38:52;103576.97;;;6.67;100.00
42105;BME280;61464;51.472;5.712;2023-02-12T04:41:19;103563.28;;;6.65;100.00
42105;BME280;61464;51.472;5.712;2023-02-12T04:43:49;103570.09;;;6.66;100.00
42105;BME280;61464;51.472;5.712;2023-02-12T04:46:19;103572.88;;;6.61;100.00
42105;BME280;61464;51.472;5.712;2023-02-12T04:48:58;103572.88;;;6.61;100.00
42105;BME280;61464;51.472;5.712;2023-02-12T04:51:25;103575.41;;;6.63;100.00
42105;BME280;61464;51.472;5.712;2023-02-12T04:53:54;103569.53;;;6.59;100.00
42105;BME280;61464;51.472;5.712;2023-02-12T04:56:21;103568.69;;;6.59;100.00
42105;BME280;61464;51.472;5.712;2023-02-12T04:58:53;103567.84;;;6.58;100.00
42105;BME280;61464;51.472;5.712;2023-02-12T05:01:40;103567.97;;;6.55;100.00
42105;BME280;61464;51.472;5.712;2023-02-12T05:04:15;103566.31;;;6.54;100.00
42105;BME280;61464;51.472;5.712;2023-02-12T05:06:44;103570.59;;;6.54;100.00
42105;BME280;61464;51.472;5.712;2023-02-12T05:09:28;103565.63;;;6.49;100.00
42105;BME280;61464;51.472;5.712;2023-02-12T05:12:09;103573.31;;;6.51;100.00
42105;BME280;61464;51.472;5.712;2023-02-12T05:14:39;103569.78;;;6.53;100.00
42105;BME280;61464;51.472;5.712;2023-02-12T05:17:06;103564.81;;;6.49;100.00
42105;BME280;61464;51.472;5.712;2023-02-12T05:19:33;103566.47;;;6.50;100.00
42105;BME280;61464;51.472;5.712;2023-02-12T05:21:59;103561.31;;;6.50;100.00
42105;BME280;61464;51.472;5.712;2023-02-12T05:24:32;103570.22;;;6.42;100.00
42105;BME280;61464;51.472;5.712;2023-02-12T05:27:02;103577.91;;;6.44;100.00
42105;BME280;61464;51.472;5.712;2023-02-12T05:29:37;103580.34;;;6.47;100.00
42105;BME280;61464;51.472;5.712;2023-02-12T05:32:36;103578.78;;;6.43;100.00
42105;BME280;61464;51.472;5.712;2023-02-12T05:35:11;103573.53;;;6.46;100.00
42105;BME280;61464;51.472;5.712;2023-02-12T05:37:43;103580.34;;;6.47;100.00
42105;BME280;61464;51.472;5.712;2023-02-12T05:40:13;103580.16;;;6.52;100.00
42105;BME280;61464;51.472;5.712;2023-02-12T05:42:40;103586.03;;;6.55;100.00
42105;BME280;61464;51.472;5.712;2023-02-12T05:45:31;103573.19;;;6.54;100.00
42105;BME280;61464;51.472;5.712;2023-02-12T05:48:04;103575.00;;;6.52;100.00
42105;BME280;61464;51.472;5.712;2023-02-12T05:50:32;103579.25;;;6.53;100.00
42105;BME280;61464;51.472;5.712;2023-02-12T05:53:07;103579.31;;;6.51;100.00
42105;BME280;61464;51.472;5.712;2023-02-12T05:55:49;103581.31;;;6.44;100.00
42105;BME280;61464;51.472;5.712;2023-02-12T05:58:38;103584.00;;;6.41;100.00
42105;BME280;61464;51.472;5.712;2023-02-12T06:01:44;103589.66;;;6.29;100.00
42105;BME280;61464;51.472;5.712;2023-02-12T06:04:33;103588.81;;;6.29;100.00
42105;BME280;61464;51.472;5.712;2023-02-12T06:07:13;103582.78;;;6.30;100.00
42105;BME280;61464;51.472;5.712;2023-02-12T06:10:09;103587.03;;;6.31;100.00
42105;BME280;61464;51.472;5.712;2023-02-12T06:13:08;103600.50;;;6.37;100.00
42105;BME280;61464;51.472;5.712;2023-02-12T06:16:27;103592.13;;;6.32;100.00
42105;BME280;61464;51.472;5.712;2023-02-12T06:18:57;103588.53;;;6.36;100.00
42105;BME280;61464;51.472;5.712;2023-02-12T06:21:28;103588.56;;;6.35;100.00
42105;BME280;61464;51.472;5.712;2023-02-12T06:24:08;103591.94;;;6.37;100.00
42105;BME280;61464;51.472;5.712;2023-02-12T06:27:13;103595.72;;;6.28;100.00
42105;BME280;61464;51.472;5.712;2023-02-12T06:29:44;103592.44;;;6.24;100.00
42105;BME280;61464;51.472;5.712;2023-02-12T06:32:15;103594.75;;;6.31;100.00
42105;BME280;61464;51.472;5.712;2023-02-12T06:34:54;103597.16;;;6.35;100.00
42105;BME280;61464;51.472;5.712;2023-02-12T06:41:17;103596.69;;;6.26;100.00
42105;BME280;61464;51.472;5.712;2023-02-12T06:44:09;103599.97;;;6.29;100.00
42105;BME280;61464;51.472;5.712;2023-02-12T06:46:43;103599.03;;;6.32;100.00
42105;BME280;61464;51.472;5.712;2023-02-12T06:49:17;103606.69;;;6.33;100.00
42105;BME280;61464;51.472;5.712;2023-02-12T06:51:52;103599.13;;;6.29;100.00
42105;BME280;61464;51.472;5.712;2023-02-12T06:54:27;103609.41;;;6.30;100.00
42105;BME280;61464;51.472;5.712;2023-02-12T06:56:54;103617.88;;;6.34;100.00
42105;BME280;61464;51.472;5.712;2023-02-12T06:59:23;103604.06;;;6.35;100.00
42105;BME280;61464;51.472;5.712;2023-02-12T07:01:50;103616.00;;;6.37;100.00
42105;BME280;61464;51.472;5.712;2023-02-12T07:04:23;103621.00;;;6.42;100.00
42105;BME280;61464;51.472;5.712;2023-02-12T07:06:59;103619.34;;;6.39;100.00
42105;BME280;61464;51.472;5.712;2023-02-12T07:09:29;103615.88;;;6.40;100.00
42105;BME280;61464;51.472;5.712;2023-02-12T07:12:04;103620.84;;;6.45;100.00
42105;BME280;61464;51.472;5.712;2023-02-12T07:14:31;103614.19;;;6.39;100.00
42105;BME280;61464;51.472;5.712;2023-02-12T07:16:59;103625.13;;;6.46;100.00
42105;BME280;61464;51.472;5.712;2023-02-12T07:19:29;103620.22;;;6.40;100.00
42105;BME280;61464;51.472;5.712;2023-02-12T07:22:15;103623.50;;;6.43;100.00
42105;BME280;61464;51.472;5.712;2023-02-12T07:24:47;103630.28;;;6.46;100.00
42105;BME280;61464;51.472;5.712;2023-02-12T07:27:22;103634.69;;;6.44;100.00
42105;BME280;61464;51.472;5.712;2023-02-12T07:29:52;103629.44;;;6.45;100.00
42105;BME280;61464;51.472;5.712;2023-02-12T07:32:27;103629.31;;;6.49;100.00
42105;BME280;61464;51.472;5.712;2023-02-12T07:34:53;103634.34;;;6.52;100.00
42105;BME280;61464;51.472;5.712;2023-02-12T07:37:19;103642.09;;;6.52;100.00
42105;BME280;61464;51.472;5.712;2023-02-12T07:39:48;103641.84;;;6.58;100.00
42105;BME280;61464;51.472;5.712;2023-02-12T07:42:25;103650.56;;;6.55;100.00
42105;BME280;61464;51.472;5.712;2023-02-12T07:44:58;103641.97;;;6.55;100.00
42105;BME280;61464;51.472;5.712;2023-02-12T07:47:28;103637.72;;;6.54;100.00
42105;BME280;61464;51.472;5.712;2023-02-12T07:49:57;103643.66;;;6.56;100.00
42105;BME280;61464;51.472;5.712;2023-02-12T07:52:34;103644.25;;;6.62;100.00
42105;BME280;61464;51.472;5.712;2023-02-12T07:55:00;103644.94;;;6.66;100.00
42105;BME280;61464;51.472;5.712;2023-02-12T07:57:26;103638.00;;;6.68;100.00
42105;BME280;61464;51.472;5.712;2023-02-12T07:59:56;103651.44;;;6.76;100.00
42105;BME280;61464;51.472;5.712;2023-02-12T08:02:25;103653.91;;;6.79;100.00
42105;BME280;61464;51.472;5.712;2023-02-12T08:05:00;103647.13;;;6.77;100.00
42105;BME280;61464;51.472;5.712;2023-02-12T08:07:29;103645.97;;;6.84;100.00
42105;BME280;61464;51.472;5.712;2023-02-12T08:09:57;103661.34;;;6.87;100.00
42105;BME280;61464;51.472;5.712;2023-02-12T08:12:44;103655.97;;;6.92;100.00
42105;BME280;61464;51.472;5.712;2023-02-12T08:15:10;103654.28;;;6.91;100.00
42105;BME280;61464;51.472;5.712;2023-02-12T08:17:52;103654.22;;;6.92;100.00
42105;BME280;61464;51.472;5.712;2023-02-12T08:20:33;103663.53;;;6.96;100.00
42105;BME280;61464;51.472;5.712;2023-02-12T08:23:09;103654.44;;;6.88;100.00
42105;BME280;61464;51.472;5.712;2023-02-12T08:26:02;103667.84;;;6.96;100.00
42105;BME280;61464;51.472;5.712;2023-02-12T08:28:39;103670.31;;;6.99;100.00
42105;BME280;61464;51.472;5.712;2023-02-12T08:31:15;103662.19;;;7.08;100.00
42105;BME280;61464;51.472;5.712;2023-02-12T08:33:47;103666.19;;;7.15;100.00
42105;BME280;61464;51.472;5.712;2023-02-12T08:36:19;103672.91;;;7.19;100.00
42105;BME280;61464;51.472;5.712;2023-02-12T08:39:03;103663.22;;;7.24;100.00
42105;BME280;61464;51.472;5.712;2023-02-12T08:42:10;103666.38;;;7.31;100.00
42105;BME280;61464;51.472;5.712;2023-02-12T08:44:42;103666.31;;;7.33;100.00
42105;BME280;61464;51.472;5.712;2023-02-12T08:47:18;103667.22;;;7.32;100.00
42105;BME280;61464;51.472;5.712;2023-02-12T08:50:07;103674.78;;;7.36;100.00
42105;BME280;61464;51.472;5.712;2023-02-12T08:52:56;103670.56;;;7.34;100.00
42105;BME280;61464;51.472;5.712;2023-02-12T08:58:47;103678.06;;;7.40;100.00
42105;BME280;61464;51.472;5.712;2023-02-12T09:01:31;103674.31;;;7.47;100.00
42105;BME280;61464;51.472;5.712;2023-02-12T09:04:09;103673.47;;;7.47;100.00
42105;BME280;61464;51.472;5.712;2023-02-12T09:14:05;103674.06;;;7.72;100.00
42105;BME280;61464;51.472;5.712;2023-02-12T09:16:52;103678.19;;;7.76;100.00
42105;BME280;61464;51.472;5.712;2023-02-12T09:19:29;103680.38;;;7.85;100.00
42105;BME280;61464;51.472;5.712;2023-02-12T09:21:55;103678.47;;;7.89;100.00
42105;BME280;61464;51.472;5.712;2023-02-12T09:25:00;103685.69;;;7.82;100.00
42105;BME280;61464;51.472;5.712;2023-02-12T09:27:39;103691.84;;;7.80;100.00
42105;BME280;61464;51.472;5.712;2023-02-12T09:30:09;103693.44;;;7.82;100.00
42105;BME280;61464;51.472;5.712;2023-02-12T09:33:25;103693.16;;;7.89;100.00
42105;BME280;61464;51.472;5.712;2023-02-12T09:36:11;103692.91;;;7.95;100.00
42105;BME280;61464;51.472;5.712;2023-02-12T09:39:26;103685.06;;;7.96;100.00
42105;BME280;61464;51.472;5.712;2023-02-12T09:52:18;103695.97;;;7.84;100.00
42105;BME280;61464;51.472;5.712;2023-02-12T09:55:11;103691.63;;;7.84;100.00
42105;BME280;61464;51.472;5.712;2023-02-12T09:58:00;103698.72;;;8.00;100.00
42105;BME280;61464;51.472;5.712;2023-02-12T10:00:53;103690.31;;;8.14;100.00
42105;BME280;61464;51.472;5.712;2023-02-12T10:04:44;103704.59;;;8.41;100.00
42105;BME280;61464;51.472;5.712;2023-02-12T10:29:38;103703.59;;;9.33;100.00
42105;BME280;61464;51.472;5.712;2023-02-12T10:33:34;103703.00;;;9.27;100.00
42105;BME280;61464;51.472;5.712;2023-02-12T10:40:03;103704.97;;;9.40;100.00
42105;BME280;61464;51.472;5.712;2023-02-12T10:43:05;103700.56;;;9.42;100.00
42105;BME280;61464;51.472;5.712;2023-02-12T10:46:30;103700.38;;;9.45;100.00
42105;BME280;61464;51.472;5.712;2023-02-12T10:53:59;103706.16;;;9.17;100.00
42105;BME280;61464;51.472;5.712;2023-02-12T10:57:28;103705.16;;;9.19;100.00
42105;BME280;61464;51.472;5.712;2023-02-12T11:05:28;103704.06;;;9.06;100.00
42105;BME280;61464;51.472;5.712;2023-02-12T11:09:24;103716.34;;;9.37;100.00
42105;BME280;61464;51.472;5.712;2023-02-12T11:16:35;103691.25;;;9.20;100.00
42105;BME280;61464;51.472;5.712;2023-02-12T11:20:40;103699.34;;;9.32;100.00
42105;BME280;61464;51.472;5.712;2023-02-12T11:34:17;103689.06;;;9.63;100.00
42105;BME280;61464;51.472;5.712;2023-02-12T11:37:32;103681.38;;;9.62;100.00
42105;BME280;61464;51.472;5.712;2023-02-12T11:41:36;103683.53;;;9.70;100.00
42105;BME280;61464;51.472;5.712;2023-02-12T11:49:16;103664.38;;;9.56;100.00
42105;BME280;61464;51.472;5.712;2023-02-12T11:56:40;103663.44;;;9.57;100.00
42105;BME280;61464;51.472;5.712;2023-02-12T11:59:59;103664.75;;;9.66;100.00
42105;BME280;61464;51.472;5.712;2023-02-12T12:07:41;103656.59;;;9.56;100.00
42105;BME280;61464;51.472;5.712;2023-02-12T12:38:04;103632.25;;;9.25;100.00
42105;BME280;61464;51.472;5.712;2023-02-12T13:03:57;103607.44;;;9.86;100.00
42105;BME280;61464;51.472;5.712;2023-02-12T13:10:49;103591.66;;;9.42;100.00
42105;BME280;61464;51.472;5.712;2023-02-12T13:13:45;103590.41;;;9.33;100.00
42105;BME280;61464;51.472;5.712;2023-02-12T13:16:47;103584.88;;;9.39;100.00
42105;BME280;61464;51.472;5.712;2023-02-12T13:19:58;103595.84;;;9.44;100.00
42105;BME280;61464;51.472;5.712;2023-02-12T13:26:56;103590.34;;;9.66;100.00
42105;BME280;61464;51.472;5.712;2023-02-12T13:33:38;103580.47;;;9.57;100.00
42105;BME280;61464;51.472;5.712;2023-02-12T13:36:43;103582.72;;;9.63;100.00
42105;BME280;61464;51.472;5.712;2023-02-12T13:39:47;103578.38;;;9.48;100.00
42105;BME280;61464;51.472;5.712;2023-02-12T13:42:53;103581.66;;;9.52;100.00
42105;BME280;61464;51.472;5.712;2023-02-12T13:56:40;103583.28;;;9.37;100.00
42105;BME280;61464;51.472;5.712;2023-02-12T14:03:07;103577.00;;;9.41;100.00
42105;BME280;61464;51.472;5.712;2023-02-12T14:06:25;103569.41;;;9.38;100.00
42105;BME280;61464;51.472;5.712;2023-02-12T14:10:02;103562.78;;;9.32;100.00
42105;BME280;61464;51.472;5.712;2023-02-12T14:12:41;103559.94;;;9.21;100.00
42105;BME280;61464;51.472;5.712;2023-02-12T14:15:33;103560.78;;;9.04;100.00
42105;BME280;61464;51.472;5.712;2023-02-12T14:18:30;103568.66;;;9.02;100.00
42105;BME280;61464;51.472;5.712;2023-02-12T14:24:46;103557.38;;;9.03;100.00
42105;BME280;61464;51.472;5.712;2023-02-12T14:27:56;103552.44;;;8.99;100.00
42105;BME280;61464;51.472;5.712;2023-02-12T14:30:39;103562.81;;;8.99;100.00
42105;BME280;61464;51.472;5.712;2023-02-12T14:35:39;103556.38;;;9.06;100.00
42105;BME280;61464;51.472;5.712;2023-02-12T14:41:39;103558.81;;;9.09;100.00
42105;BME280;61464;51.472;5.712;2023-02-12T14:47:02;103556.81;;;9.14;100.00
42105;BME280;61464;51.472;5.712;2023-02-12T14:50:18;103551.41;;;9.19;100.00
42105;BME280;61464;51.472;5.712;2023-02-12T14:53:41;103551.63;;;9.14;100.00
42105;BME280;61464;51.472;5.712;2023-02-12T14:57:06;103543.34;;;9.07;100.00
42105;BME280;61464;51.472;5.712;2023-02-12T14:59:40;103536.81;;;9.00;100.00
42105;BME280;61464;51.472;5.712;2023-02-12T15:02:20;103546.25;;;9.01;100.00
42105;BME280;61464;51.472;5.712;2023-02-12T15:04:50;103544.50;;;9.02;100.00
42105;BME280;61464;51.472;5.712;2023-02-12T15:14:29;103545.22;;;8.88;100.00
42105;BME280;61464;51.472;5.712;2023-02-12T15:17:26;103542.31;;;8.94;100.00
42105;BME280;61464;51.472;5.712;2023-02-12T15:20:06;103542.97;;;8.82;100.00
42105;BME280;61464;51.472;5.712;2023-02-12T15:22:47;103542.78;;;8.85;100.00
42105;BME280;61464;51.472;5.712;2023-02-12T15:25:20;103543.59;;;8.85;100.00
42105;BME280;61464;51.472;5.712;2023-02-12T15:27:51;103540.03;;;8.88;100.00
42105;BME280;61464;51.472;5.712;2023-02-12T15:30:27;103537.97;;;8.77;100.00
42105;BME280;61464;51.472;5.712;2023-02-12T15:33:00;103532.34;;;8.69;100.00
42105;BME280;61464;51.472;5.712;2023-02-12T15:35:37;103533.66;;;8.78;100.00
42105;BME280;61464;51.472;5.712;2023-02-12T15:38:05;103537.16;;;8.77;100.00
42105;BME280;61464;51.472;5.712;2023-02-12T15:40:34;103529.78;;;8.69;100.00
42105;BME280;61464;51.472;5.712;2023-02-12T15:43:16;103536.63;;;8.70;100.00
42105;BME280;61464;51.472;5.712;2023-02-12T15:45:50;103538.91;;;8.76;100.00
42105;BME280;61464;51.472;5.712;2023-02-12T15:48:41;103533.53;;;8.63;100.00
42105;BME280;61464;51.472;5.712;2023-02-12T15:51:54;103542.06;;;8.65;100.00
42105;BME280;61464;51.472;5.712;2023-02-12T15:54:28;103529.41;;;8.59;100.00
42105;BME280;61464;51.472;5.712;2023-02-12T15:56:55;103525.22;;;8.57;100.00
42105;BME280;61464;51.472;5.712;2023-02-12T15:59:25;103525.38;;;8.54;100.00
42105;BME280;61464;51.472;5.712;2023-02-12T16:02:00;103528.03;;;8.52;100.00
42105;BME280;61464;51.472;5.712;2023-02-12T16:04:36;103518.00;;;8.46;100.00
42105;BME280;61464;51.472;5.712;2023-02-12T16:07:12;103520.50;;;8.48;100.00
42105;BME280;61464;51.472;5.712;2023-02-12T16:09:42;103518.91;;;8.45;100.00
42105;BME280;61464;51.472;5.712;2023-02-12T16:12:13;103520.59;;;8.46;100.00
42105;BME280;61464;51.472;5.712;2023-02-12T16:14:48;103529.03;;;8.50;100.00
42105;BME280;61464;51.472;5.712;2023-02-12T16:20:28;103529.41;;;8.42;100.00
42105;BME280;61464;51.472;5.712;2023-02-12T16:23:18;103522.75;;;8.36;100.00
42105;BME280;61464;51.472;5.712;2023-02-12T16:25:54;103525.44;;;8.35;100.00
42105;BME280;61464;51.472;5.712;2023-02-12T16:28:27;103530.50;;;8.36;100.00
42105;BME280;61464;51.472;5.712;2023-02-12T16:31:11;103509.28;;;8.30;100.00
42105;BME280;61464;51.472;5.712;2023-02-12T16:33:58;103518.81;;;8.29;100.00
42105;BME280;61464;51.472;5.712;2023-02-12T16:36:31;103513.16;;;8.21;100.00
42105;BME280;61464;51.472;5.712;2023-02-12T16:39:05;103510.50;;;8.22;100.00
42105;BME280;61464;51.472;5.712;2023-02-12T16:41:34;103503.81;;;8.18;100.00
42105;BME280;61464;51.472;5.712;2023-02-12T16:44:52;103516.59;;;8.21;100.00
42105;BME280;61464;51.472;5.712;2023-02-12T16:47:22;103519.47;;;8.15;100.00
42105;BME280;61464;51.472;5.712;2023-02-12T16:49:59;103504.94;;;8.13;100.00
42105;BME280;61464;51.472;5.712;2023-02-12T16:52:38;103510.06;;;8.14;100.00
42105;BME280;61464;51.472;5.712;2023-02-12T16:55:13;103520.59;;;8.10;100.00
42105;BME280;61464;51.472;5.712;2023-02-12T16:57:40;103518.00;;;8.10;100.00
42105;BME280;61464;51.472;5.712;2023-02-12T17:00:14;103515.44;;;8.10;100.00
42105;BME280;61464;51.472;5.712;2023-02-12T17:02:42;103523.94;;;8.12;100.00
42105;BME280;61464;51.472;5.712;2023-02-12T17:05:09;103517.41;;;8.04;100.00
42105;BME280;61464;51.472;5.712;2023-02-12T17:07:39;103528.59;;;8.05;100.00
42105;BME280;61464;51.472;5.712;2023-02-12T17:10:06;103522.66;;;8.03;100.00
42105;BME280;61464;51.472;5.712;2023-02-12T17:12:46;103528.75;;;8.02;100.00
42105;BME280;61464;51.472;5.712;2023-02-12T17:15:39;103527.81;;;8.03;100.00
42105;BME280;61464;51.472;5.712;2023-02-12T17:18:08;103525.31;;;8.01;100.00
42105;BME280;61464;51.472;5.712;2023-02-12T17:20:39;103521.06;;;8.00;100.00
42105;BME280;61464;51.472;5.712;2023-02-12T17:23:09;103523.94;;;7.94;100.00
42105;BME280;61464;51.472;5.712;2023-02-12T17:25:39;103515.53;;;7.89;100.00
42105;BME280;61464;51.472;5.712;2023-02-12T17:29:20;103526.53;;;7.94;100.00
42105;BME280;61464;51.472;5.712;2023-02-12T17:31:49;103521.59;;;7.90;100.00
42105;BME280;61464;51.472;5.712;2023-02-12T17:34:18;103524.34;;;7.85;100.00
42105;BME280;61464;51.472;5.712;2023-02-12T17:36:46;103525.22;;;7.85;100.00
42105;BME280;61464;51.472;5.712;2023-02-12T17:39:15;103532.81;;;7.89;100.00
42105;BME280;61464;51.472;5.712;2023-02-12T17:41:49;103526.81;;;7.88;100.00
42105;BME280;61464;51.472;5.712;2023-02-12T17:44:16;103527.03;;;7.83;100.00
42105;BME280;61464;51.472;5.712;2023-02-12T17:46:45;103530.53;;;7.82;100.00
42105;BME280;61464;51.472;5.712;2023-02-12T17:49:17;103532.41;;;7.79;100.00
42105;BME280;61464;51.472;5.712;2023-02-12T17:52:21;103533.16;;;7.81;100.00
42105;BME280;61464;51.472;5.712;2023-02-12T17:55:13;103534.16;;;7.78;100.00
42105;BME280;61464;51.472;5.712;2023-02-12T17:57:53;103530.69;;;7.79;100.00
42105;BME280;61464;51.472;5.712;2023-02-12T18:00:27;103538.28;;;7.82;100.00
42105;BME280;61464;51.472;5.712;2023-02-12T18:03:03;103538.22;;;7.84;100.00
42105;BME280;61464;51.472;5.712;2023-02-12T18:05:31;103527.22;;;7.79;100.00